Time;durP1;ratioP1;P1;durP2;ratioP2;P2;SDS_P1;SDS_P2;PMS_P1;PMS_P2;Temp;Humidity;BMP_temperature;BMP_pressure;BME280_temperature;BME280_humidity;BME280_pressure;Samples;Min_cycle;Max_cycle;Signal;HPM_P1;HPM_P2
2023/01/15 00:01:03;;;;;;;;;1.00;1.00;;;;;10.02;77.69;100252.44;6275436;22;45958;-44
2023/01/15 00:03:30;;;;;;;;;3.00;1.33;;;;;10.03;77.15;100251.44;6275050;22;45383;-50
2023/01/15 00:06:00;;;;;;;;;0.00;0.00;;;;;10.00;77.07;100252.59;6274969;22;45291;-45
2023/01/15 00:08:25;;;;;;;;;2.00;0.00;;;;;10.03;77.24;100254.09;6273746;22;45116;-48
2023/01/15 00:10:51;;;;;;;;;0.00;0.00;;;;;10.04;77.20;100259.28;6274437;22;45266;-49
2023/01/15 00:13:16;;;;;;;;;0.67;0.00;;;;;10.03;76.74;100262.91;6275300;22;45089;-48
2023/01/15 00:15:41;;;;;;;;;4.33;0.00;;;;;10.00;76.90;100257.91;6273323;22;45244;-48
2023/01/15 00:18:07;;;;;;;;;1.33;0.33;;;;;10.00;77.59;100263.22;6275162;22;45398;-43
2023/01/15 00:20:32;;;;;;;;;1.33;0.00;;;;;10.00;76.74;100257.91;6275381;22;46154;-48
2023/01/15 00:22:57;;;;;;;;;0.00;0.00;;;;;9.98;76.71;100259.88;6273697;22;45348;-50
2023/01/15 00:28:06;;;;;;;;;0.00;0.00;;;;;9.94;76.57;100248.75;6275848;22;45165;-45
2023/01/15 00:30:32;;;;;;;;;0.00;0.00;;;;;9.91;76.76;100253.53;6274777;22;45992;-48
2023/01/15 00:32:58;;;;;;;;;0.00;0.00;;;;;9.89;76.18;100268.78;6274239;22;45258;-49
2023/01/15 00:35:23;;;;;;;;;0.00;0.00;;;;;9.86;76.06;100250.47;6275163;22;45344;-46
2023/01/15 00:37:49;;;;;;;;;1.00;0.00;;;;;9.87;76.54;100263.63;6275318;22;45272;-46
2023/01/15 00:40:16;;;;;;;;;0.00;0.00;;;;;9.87;75.89;100273.41;6274028;22;45908;-45
2023/01/15 00:42:42;;;;;;;;;1.67;0.00;;;;;9.85;75.81;100254.13;6273169;22;45305;-44
2023/01/15 00:45:09;;;;;;;;;0.00;0.00;;;;;9.83;75.44;100256.94;6274652;22;45289;-43
2023/01/15 00:47:39;;;;;;;;;0.67;0.33;;;;;9.85;76.25;100248.81;6275474;22;45376;-45
2023/01/15 00:50:06;;;;;;;;;0.33;0.00;;;;;9.85;76.18;100260.28;6274654;22;46056;-49
2023/01/15 00:52:32;;;;;;;;;0.00;0.00;;;;;9.79;76.27;100258.25;6274634;22;45344;-47
2023/01/15 00:54:57;;;;;;;;;1.00;0.00;;;;;9.73;75.66;100234.94;6274934;22;45475;-44
2023/01/15 00:57:22;;;;;;;;;0.00;0.00;;;;;9.87;76.39;100255.66;6276275;22;45365;-47
2023/01/15 00:59:48;;;;;;;;;0.00;0.00;;;;;9.80;75.75;100237.81;6248551;22;46892;-44
2023/01/15 01:02:13;;;;;;;;;0.00;0.00;;;;;9.86;75.64;100266.41;6276013;22;45301;-42
2023/01/15 01:04:38;;;;;;;;;1.67;0.67;;;;;9.84;76.04;100265.75;6276408;22;45511;-45
2023/01/15 01:07:04;;;;;;;;;0.00;0.00;;;;;9.84;76.00;100257.78;6276022;22;45279;-49
2023/01/15 01:09:29;;;;;;;;;0.00;0.00;;;;;9.79;75.92;100249.44;6275517;22;46080;-43
2023/01/15 01:11:54;;;;;;;;;2.00;0.67;;;;;9.82;76.03;100241.13;6275820;22;45524;-49
2023/01/15 01:14:20;;;;;;;;;1.67;0.00;;;;;9.79;75.67;100246.78;6275738;22;45340;-49
2023/01/15 01:16:45;;;;;;;;;0.00;0.00;;;;;9.77;75.92;100252.22;6276387;22;45144;-43
2023/01/15 01:19:17;;;;;;;;;1.00;1.00;;;;;9.77;76.41;100254.06;6275508;22;46055;-48
2023/01/15 01:21:43;;;;;;;;;0.00;0.00;;;;;9.79;76.00;100262.72;6275942;22;45336;-51
2023/01/15 01:24:14;;;;;;;;;1.00;1.00;;;;;9.78;76.61;100269.84;6274051;22;45300;-48
2023/01/15 01:26:40;;;;;;;;;2.00;0.00;;;;;9.69;76.51;100254.81;6276036;22;45367;-45
2023/01/15 01:29:06;;;;;;;;;0.67;0.33;;;;;9.75;75.25;100265.69;6275467;22;46151;-42
2023/01/15 01:31:31;;;;;;;;;0.00;0.00;;;;;9.44;75.22;100212.13;6275327;22;45378;-42
2023/01/15 01:33:58;;;;;;;;;0.00;0.00;;;;;9.74;75.45;100264.00;6275686;22;45277;-47
2023/01/15 01:36:29;;;;;;;;;0.00;0.00;;;;;9.73;75.44;100256.19;6276078;22;45258;-43
2023/01/15 01:38:54;;;;;;;;;0.00;0.00;;;;;9.74;74.96;100271.16;6274630;22;47141;-44
2023/01/15 01:41:19;;;;;;;;;1.00;0.00;;;;;9.73;74.95;100270.31;6275362;22;45417;-42
2023/01/15 01:44:07;;;;;;;;;0.67;0.00;;;;;9.67;75.27;100278.06;6276208;22;45290;-44
2023/01/15 01:46:34;;;;;;;;;0.00;0.00;;;;;9.74;74.54;100281.78;6275144;22;45273;-45
2023/01/15 01:49:08;;;;;;;;;0.00;0.00;;;;;9.73;75.14;100278.28;6275279;22;45987;-46
2023/01/15 01:52:02;;;;;;;;;2.67;0.00;;;;;9.71;74.41;100277.59;6275858;22;45159;-45
2023/01/15 01:54:31;;;;;;;;;0.00;0.00;;;;;9.72;74.84;100289.03;6261078;22;45362;-43
2023/01/15 01:56:57;;;;;;;;;1.00;0.00;;;;;9.70;73.86;100275.94;6275946;22;45446;-43
2023/01/15 01:59:24;;;;;;;;;0.00;0.00;;;;;9.70;74.87;100291.03;6275649;22;45987;-42
2023/01/15 02:01:51;;;;;;;;;1.00;0.00;;;;;9.68;74.06;100290.34;6275697;22;45408;-43
2023/01/15 02:04:19;;;;;;;;;0.00;0.00;;;;;9.65;73.57;100294.16;6276282;22;45231;-45
2023/01/15 02:06:44;;;;;;;;;0.00;0.00;;;;;9.64;73.68;100287.16;6275283;22;45187;-48
2023/01/15 02:09:10;;;;;;;;;0.00;0.00;;;;;9.65;73.59;100291.50;6275917;22;46041;-46
2023/01/15 02:11:36;;;;;;;;;0.00;0.00;;;;;9.66;73.37;100287.00;6276298;22;45548;-49
2023/01/15 02:14:28;;;;;;;;;2.00;0.00;;;;;9.67;73.58;100291.34;6275573;22;45184;-42
2023/01/15 02:17:24;;;;;;;;;0.00;0.00;;;;;9.66;73.88;100292.31;6274913;22;45195;-44
2023/01/15 02:20:19;;;;;;;;;1.67;1.00;;;;;9.69;74.29;100308.78;6272294;22;45636;-42
2023/01/15 02:23:20;;;;;;;;;0.00;0.00;;;;;9.68;73.75;100304.44;6275401;22;45238;-47
2023/01/15 02:26:06;;;;;;;;;3.00;0.00;;;;;9.65;73.60;100314.53;6275175;22;45272;-47
2023/01/15 02:28:45;;;;;;;;;0.00;0.00;;;;;9.62;73.18;100310.38;6275473;22;45379;-45
2023/01/15 02:31:29;;;;;;;;;0.00;0.00;;;;;9.61;74.03;100322.00;6275540;22;45250;-47
2023/01/15 02:34:04;;;;;;;;;0.33;0.00;;;;;9.60;73.68;100324.78;6275346;22;45167;-45
2023/01/15 02:36:34;;;;;;;;;0.00;0.00;;;;;9.59;73.39;100331.91;6275281;22;45281;-41
2023/01/15 02:39:05;;;;;;;;;1.67;0.00;;;;;9.57;73.33;100317.97;6275042;22;45277;-40
2023/01/15 02:41:38;;;;;;;;;0.00;0.00;;;;;9.58;73.73;100334.72;6275020;22;46368;-42
2023/01/15 02:44:06;;;;;;;;;0.67;0.00;;;;;9.58;73.50;100340.03;6274167;22;45205;-45
2023/01/15 02:46:36;;;;;;;;;0.00;0.00;;;;;9.55;73.13;100343.81;6275587;22;45311;-43
2023/01/15 02:49:06;;;;;;;;;0.00;0.00;;;;;9.57;73.19;100319.78;6275330;22;45254;-45
2023/01/15 02:51:38;;;;;;;;;0.33;0.00;;;;;9.57;73.83;100328.59;6275555;22;45206;-44
2023/01/15 02:54:08;;;;;;;;;0.00;0.00;;;;;9.56;73.10;100345.47;6275187;22;45177;-44
2023/01/15 02:56:36;;;;;;;;;0.00;0.00;;;;;9.57;73.37;100352.50;6275106;22;45265;-47
2023/01/15 02:59:06;;;;;;;;;0.00;0.00;;;;;9.57;73.17;100341.03;6275842;22;45390;-42
2023/01/15 03:01:41;;;;;;;;;0.00;0.00;;;;;9.59;73.83;100331.91;6274870;22;46198;-45
2023/01/15 03:04:15;;;;;;;;;0.00;0.00;;;;;9.47;73.33;100330.47;6275711;22;45201;-44
2023/01/15 03:06:44;;;;;;;;;1.67;0.00;;;;;9.52;73.34;100351.25;6275052;22;45274;-48
2023/01/15 03:09:10;;;;;;;;;2.00;0.00;;;;;9.56;73.24;100372.03;6275305;22;45432;-43
2023/01/15 03:11:41;;;;;;;;;0.00;0.00;;;;;9.55;73.61;100365.06;6275353;22;45367;-44
2023/01/15 03:14:15;;;;;;;;;0.67;0.00;;;;;9.58;73.32;100351.50;6275263;22;45234;-48
2023/01/15 03:16:51;;;;;;;;;1.00;0.00;;;;;9.55;73.50;100367.72;6275102;22;45218;-48
2023/01/15 03:19:29;;;;;;;;;0.00;0.00;;;;;9.50;73.63;100370.81;6275132;22;45468;-45
2023/01/15 03:22:01;;;;;;;;;0.00;0.00;;;;;9.46;73.58;100368.63;6274954;22;46911;-44
2023/01/15 03:24:32;;;;;;;;;3.00;1.00;;;;;9.42;73.30;100372.56;6275206;22;45317;-50
2023/01/15 03:26:58;;;;;;;;;1.67;0.00;;;;;9.38;73.15;100379.13;6275380;22;45277;-49
2023/01/15 03:29:28;;;;;;;;;0.00;0.00;;;;;9.34;73.35;100375.09;6275778;22;45241;-47
2023/01/15 03:31:54;;;;;;;;;2.00;0.33;;;;;9.33;73.64;100382.25;6275523;22;45412;-47
2023/01/15 03:34:19;;;;;;;;;0.00;0.00;;;;;9.29;72.79;100370.25;6275405;22;45192;-49
2023/01/15 03:36:45;;;;;;;;;1.00;0.00;;;;;9.26;72.82;100362.56;6275567;22;45291;-48
2023/01/15 03:39:10;;;;;;;;;0.67;0.00;;;;;9.29;73.85;100351.66;6275339;22;45289;-50
2023/01/15 03:41:45;;;;;;;;;0.00;0.00;;;;;9.28;72.87;100355.31;6275002;22;46235;-46
2023/01/15 03:44:35;;;;;;;;;0.00;0.00;;;;;9.25;73.25;100352.94;6275825;22;45287;-45
2023/01/15 03:47:21;;;;;;;;;0.00;0.00;;;;;9.18;73.21;100354.50;6274882;22;45196;-48
2023/01/15 03:50:02;;;;;;;;;0.00;0.00;;;;;9.20;73.02;100350.72;6274548;22;45127;-50
2023/01/15 03:52:56;;;;;;;;;0.00;0.00;;;;;9.20;73.34;100358.69;6274730;22;47138;-47
2023/01/15 03:55:28;;;;;;;;;2.00;0.00;;;;;9.19;72.88;100362.34;6120267;23;45318;-46
2023/01/15 03:58:01;;;;;;;;;0.00;0.00;;;;;9.16;72.99;100351.19;6120559;23;45473;-46
2023/01/15 04:00:32;;;;;;;;;0.00;0.00;;;;;9.12;73.18;100361.25;6120559;23;45689;-48
2023/01/15 04:03:02;;;;;;;;;1.00;0.00;;;;;9.09;72.55;100364.19;6121091;23;46329;-48
2023/01/15 04:05:30;;;;;;;;;0.00;0.00;;;;;9.09;72.87;100358.03;6120304;23;45316;-47
2023/01/15 04:07:57;;;;;;;;;0.00;0.00;;;;;9.07;72.00;100363.50;6120980;23;45303;-44
2023/01/15 04:10:23;;;;;;;;;0.00;0.00;;;;;9.08;72.25;100367.00;6121077;23;45437;-44
2023/01/15 04:12:48;;;;;;;;;0.00;0.00;;;;;9.07;71.56;100384.75;6119989;23;46525;-48
2023/01/15 04:15:13;;;;;;;;;0.00;0.00;;;;;9.03;72.45;100348.88;6120694;23;45262;-44
2023/01/15 04:17:39;;;;;;;;;0.00;0.00;;;;;9.09;71.70;100358.03;6120710;23;45330;-45
2023/01/15 04:20:05;;;;;;;;;0.00;0.00;;;;;9.09;72.37;100356.22;6120664;23;45348;-47
2023/01/15 04:22:30;;;;;;;;;0.00;0.00;;;;;9.07;71.42;100360.84;6120592;23;45392;-49
2023/01/15 04:24:55;;;;;;;;;1.00;0.00;;;;;9.04;71.91;100334.59;6120288;23;45271;-44
2023/01/15 04:27:21;;;;;;;;;0.00;0.00;;;;;8.94;70.91;100324.06;6120260;23;45392;-44
2023/01/15 04:29:47;;;;;;;;;0.00;0.00;;;;;9.03;71.23;100324.16;6120989;23;45292;-47
2023/01/15 04:32:12;;;;;;;;;3.00;0.00;;;;;9.01;70.96;100334.91;6187867;22;45718;-47
2023/01/15 04:34:37;;;;;;;;;0.00;0.00;;;;;8.96;69.86;100334.50;6274684;22;45233;-46
2023/01/15 04:37:03;;;;;;;;;0.00;0.00;;;;;8.99;70.45;100350.13;6274550;22;45377;-44
2023/01/15 04:39:28;;;;;;;;;1.00;1.00;;;;;8.97;70.18;100355.59;6274749;22;45413;-47
2023/01/15 04:44:38;;;;;;;;;0.33;0.00;;;;;8.95;70.38;100369.97;6274839;22;45137;-48
2023/01/15 04:47:03;;;;;;;;;0.00;0.00;;;;;8.92;69.01;100375.56;6274364;22;45226;-45
2023/01/15 04:49:29;;;;;;;;;3.33;0.00;;;;;8.89;68.44;100370.53;6274377;22;45370;-41
2023/01/15 04:51:54;;;;;;;;;0.00;0.00;;;;;8.85;68.30;100366.50;6274399;22;47219;-42
2023/01/15 04:54:21;;;;;;;;;0.00;0.00;;;;;8.89;69.19;100365.25;6275083;22;45344;-46
2023/01/15 04:56:50;;;;;;;;;1.00;0.00;;;;;8.87;69.04;100364.56;6274287;22;45384;-48
2023/01/15 04:59:19;;;;;;;;;0.00;0.00;;;;;8.85;68.22;100371.81;6274606;22;45215;-50
2023/01/15 05:01:44;;;;;;;;;0.00;0.00;;;;;8.82;69.32;100372.13;6274183;22;46125;-48
2023/01/15 05:04:10;;;;;;;;;0.67;0.00;;;;;8.78;69.04;100373.38;6274182;22;45348;-42
2023/01/15 05:06:35;;;;;;;;;0.00;0.00;;;;;8.76;69.20;100373.50;6274840;22;45175;-44
2023/01/15 05:09:02;;;;;;;;;0.00;0.00;;;;;8.74;68.60;100375.50;6275183;22;45174;-47
2023/01/15 05:11:28;;;;;;;;;0.00;0.00;;;;;8.70;68.41;100374.09;6274023;22;46114;-44
2023/01/15 05:13:54;;;;;;;;;1.00;0.00;;;;;8.67;69.29;100375.22;6273686;22;45243;-46
2023/01/15 05:16:25;;;;;;;;;0.00;0.00;;;;;8.66;68.09;100394.75;6274719;22;45220;-42
2023/01/15 05:18:53;;;;;;;;;0.00;0.00;;;;;8.64;67.58;100394.09;6274810;22;45265;-43
2023/01/15 05:21:19;;;;;;;;;3.00;0.00;;;;;8.61;66.95;100402.31;6274159;22;46948;-46
2023/01/15 05:23:46;;;;;;;;;2.00;0.00;;;;;8.61;67.13;100397.00;6274016;22;45253;-45
2023/01/15 05:26:12;;;;;;;;;0.00;0.00;;;;;8.60;67.05;100403.31;6274707;22;45187;-41
2023/01/15 05:28:37;;;;;;;;;0.00;0.00;;;;;8.57;66.49;100390.31;6274663;22;45349;-43
2023/01/15 05:31:08;;;;;;;;;0.00;0.00;;;;;8.60;67.04;100390.03;6274401;22;46242;-41
2023/01/15 05:33:33;;;;;;;;;0.00;0.00;;;;;8.60;66.63;100392.69;6246538;22;45263;-41
2023/01/15 05:36:04;;;;;;;;;2.67;0.00;;;;;8.50;66.79;100382.09;6273875;22;45217;-45
2023/01/15 05:38:29;;;;;;;;;0.00;0.00;;;;;8.59;66.52;100404.25;6274010;22;45340;-48
2023/01/15 05:40:55;;;;;;;;;1.00;0.00;;;;;8.58;66.48;100407.91;6273885;22;46252;-49
2023/01/15 05:43:20;;;;;;;;;4.00;0.00;;;;;8.57;66.97;100421.31;6274881;22;45514;-43
2023/01/15 05:45:46;;;;;;;;;2.00;0.00;;;;;8.56;65.89;100417.00;6275672;22;45214;-49
2023/01/15 05:48:11;;;;;;;;;0.00;0.00;;;;;8.55;67.48;100424.06;6276293;22;45186;-48
2023/01/15 05:50:36;;;;;;;;;0.00;0.00;;;;;8.52;66.60;100423.56;6275100;22;53979;-48
2023/01/15 05:53:02;;;;;;;;;2.00;0.00;;;;;8.52;66.37;100435.00;6275893;22;45349;-49
2023/01/15 05:55:27;;;;;;;;;0.33;0.00;;;;;8.50;66.57;100440.41;6275598;22;45271;-48
2023/01/15 05:57:52;;;;;;;;;1.00;0.00;;;;;8.50;66.31;100442.22;6275789;22;45253;-47
2023/01/15 06:00:18;;;;;;;;;0.00;0.00;;;;;8.54;66.38;100448.09;6275216;22;47061;-44
2023/01/15 06:02:48;;;;;;;;;0.00;0.00;;;;;8.55;65.82;100455.88;6248085;22;45230;-46
2023/01/15 06:05:13;;;;;;;;;0.00;0.00;;;;;8.53;67.44;100443.78;6275674;22;45234;-45
2023/01/15 06:07:39;;;;;;;;;0.00;0.00;;;;;8.56;65.91;100454.09;6274445;22;45308;-50
2023/01/15 06:10:04;;;;;;;;;0.00;0.00;;;;;8.51;65.28;100462.44;6275043;22;51411;-46
2023/01/15 06:12:31;;;;;;;;;1.00;0.00;;;;;8.56;65.99;100478.78;6275160;22;45266;-47
2023/01/15 06:14:57;;;;;;;;;0.00;0.00;;;;;8.52;65.69;100477.41;6275539;22;45171;-47
2023/01/15 06:17:22;;;;;;;;;0.00;0.00;;;;;8.52;65.60;100490.66;6274460;22;45455;-50
2023/01/15 06:19:47;;;;;;;;;1.00;0.00;;;;;8.51;65.30;100475.72;6275010;22;46119;-45
2023/01/15 06:22:12;;;;;;;;;0.33;0.00;;;;;8.52;65.81;100468.63;6275388;22;45281;-49
2023/01/15 06:24:38;;;;;;;;;0.00;0.00;;;;;8.49;65.30;100475.03;6275975;22;45265;-46
2023/01/15 06:27:03;;;;;;;;;0.00;0.00;;;;;8.44;65.10;100471.97;6275862;22;45306;-47
2023/01/15 06:29:28;;;;;;;;;0.00;0.00;;;;;8.43;65.92;100479.09;6275399;22;45341;-49
2023/01/15 06:31:54;;;;;;;;;1.00;0.00;;;;;8.40;64.45;100484.66;6275760;22;45190;-51
2023/01/15 06:34:19;;;;;;;;;1.00;0.00;;;;;8.37;65.17;100492.88;6276015;22;45243;-47
2023/01/15 06:36:44;;;;;;;;;0.00;0.00;;;;;8.23;65.35;100480.84;6276271;22;45180;-47
2023/01/15 06:39:10;;;;;;;;;0.00;0.00;;;;;8.28;65.49;100491.03;6275243;22;45282;-45
2023/01/15 06:47:22;;;;;;;;;0.33;0.00;;;;;8.25;66.27;100507.19;6276053;22;45385;-44
2023/01/15 06:49:48;;;;;;;;;0.00;0.00;;;;;8.23;65.70;100511.81;6275038;22;46148;-45
2023/01/15 06:52:14;;;;;;;;;1.00;0.00;;;;;8.16;65.74;100522.09;6275789;22;45222;-46
2023/01/15 06:54:39;;;;;;;;;0.00;0.00;;;;;8.17;65.97;100534.38;6275641;22;45126;-47
2023/01/15 06:57:05;;;;;;;;;0.00;0.00;;;;;8.17;66.77;100534.38;6275572;22;45389;-45
2023/01/15 06:59:30;;;;;;;;;0.00;0.00;;;;;8.12;66.48;100536.59;6275437;22;45825;-46
2023/01/15 07:01:56;;;;;;;;;0.00;0.00;;;;;8.13;66.29;100542.72;6275864;22;45238;-51
2023/01/15 07:04:21;;;;;;;;;1.00;0.00;;;;;8.12;65.29;100543.72;6276008;22;45221;-45
2023/01/15 07:06:47;;;;;;;;;0.00;0.00;;;;;8.08;65.31;100555.53;6276614;22;45281;-43
2023/01/15 07:09:12;;;;;;;;;0.00;0.00;;;;;8.03;65.45;100547.16;6274932;22;47513;-45
2023/01/15 07:11:48;;;;;;;;;0.00;0.00;;;;;8.02;65.57;100554.28;6275575;22;45389;-49
2023/01/15 07:14:24;;;;;;;;;0.00;0.00;;;;;7.95;65.43;100553.13;6275810;22;45277;-44
2023/01/15 07:16:50;;;;;;;;;0.00;0.00;;;;;7.93;65.81;100563.88;6248008;22;45206;-41
2023/01/15 07:19:17;;;;;;;;;1.00;0.00;;;;;7.89;65.94;100561.63;6275237;22;47038;-45
2023/01/15 07:21:42;;;;;;;;;0.00;0.00;;;;;7.88;65.91;100552.00;6275593;22;45325;-43
2023/01/15 07:24:09;;;;;;;;;0.00;0.00;;;;;7.84;65.76;100563.84;6275702;22;45185;-44
2023/01/15 07:26:35;;;;;;;;;0.00;0.00;;;;;7.81;66.08;100572.06;6275711;22;45328;-47
2023/01/15 07:29:00;;;;;;;;;0.00;0.00;;;;;7.79;65.34;100572.16;6274740;22;46012;-43
2023/01/15 07:31:26;;;;;;;;;0.00;0.00;;;;;7.77;66.47;100571.47;6274983;22;45248;-45
2023/01/15 07:33:51;;;;;;;;;0.00;0.00;;;;;7.75;66.01;100586.63;6275213;22;45273;-44
2023/01/15 07:36:16;;;;;;;;;0.33;0.00;;;;;7.75;66.19;100589.28;6275215;22;45416;-42
2023/01/15 07:38:42;;;;;;;;;0.00;0.00;;;;;7.75;66.43;100589.28;6273845;22;45262;-47
2023/01/15 07:52:02;;;;;;;;;0.00;0.00;;;;;7.70;66.41;100580.91;6275234;22;45400;-45
2023/01/15 07:54:28;;;;;;;;;0.33;0.00;;;;;7.68;66.84;100570.47;6275497;22;45219;-43
2023/01/15 07:56:55;;;;;;;;;0.00;0.00;;;;;7.58;66.97;100555.50;6275259;22;45352;-50
2023/01/15 07:59:21;;;;;;;;;1.00;0.00;;;;;7.64;67.21;100570.88;6274355;22;47301;-48
2023/01/15 08:01:46;;;;;;;;;1.00;0.00;;;;;7.69;67.11;100573.94;6275201;22;45186;-49
2023/01/15 08:04:11;;;;;;;;;0.00;0.00;;;;;7.68;67.62;100572.28;6274844;22;45183;-49
2023/01/15 08:06:37;;;;;;;;;0.00;0.00;;;;;7.71;67.22;100585.22;6274900;22;45369;-50
2023/01/15 08:09:04;;;;;;;;;0.00;0.00;;;;;7.72;67.63;100587.75;6275147;22;45916;-48
2023/01/15 08:17:00;;;;;;;;;0.67;0.33;;;;;7.68;67.92;100586.34;6275365;22;45405;-42
2023/01/15 08:19:28;;;;;;;;;0.00;0.00;;;;;7.62;67.39;100589.50;6247412;22;47067;-49
2023/01/15 08:21:54;;;;;;;;;0.00;0.00;;;;;7.58;67.57;100596.03;6274677;22;45309;-53
2023/01/15 08:24:19;;;;;;;;;1.00;0.00;;;;;7.58;67.58;100595.19;6274815;22;45321;-54
2023/01/15 08:26:44;;;;;;;;;0.00;0.00;;;;;7.57;68.00;100582.94;6275376;22;45340;-51
2023/01/15 08:29:10;;;;;;;;;0.00;0.00;;;;;7.56;67.38;100584.75;6274062;22;49307;-52
2023/01/15 08:31:35;;;;;;;;;2.00;0.00;;;;;7.57;67.92;100581.13;6275039;22;45272;-52
2023/01/15 08:34:01;;;;;;;;;0.00;0.00;;;;;7.57;67.29;100583.78;6274742;22;45340;-51
2023/01/15 08:36:27;;;;;;;;;0.67;0.00;;;;;7.60;67.87;100591.47;6275125;22;45305;-51
2023/01/15 08:38:52;;;;;;;;;0.00;0.00;;;;;7.61;67.65;100598.44;6272484;22;47242;-52
2023/01/15 08:41:17;;;;;;;;;0.00;0.00;;;;;7.64;67.83;100606.13;6274953;22;45178;-52
2023/01/15 08:43:44;;;;;;;;;0.00;0.00;;;;;7.66;67.43;100606.81;6274974;22;45429;-52
2023/01/15 08:46:10;;;;;;;;;0.00;0.00;;;;;7.71;66.99;100607.28;6275221;22;45334;-52
2023/01/15 08:48:35;;;;;;;;;1.67;0.33;;;;;7.75;67.13;100608.69;6274775;22;46076;-50
2023/01/15 08:51:06;;;;;;;;;1.00;1.00;;;;;7.78;67.69;100594.31;6246973;22;45355;-52
2023/01/15 08:53:31;;;;;;;;;2.00;1.00;;;;;7.79;67.38;100600.47;6274620;22;45469;-53
2023/01/15 08:55:57;;;;;;;;;2.00;0.00;;;;;7.79;67.26;100595.16;6274847;22;45297;-53
2023/01/15 08:58:22;;;;;;;;;0.00;0.00;;;;;7.82;67.46;100585.16;6274333;22;46267;-42
2023/01/15 09:00:47;;;;;;;;;2.00;0.00;;;;;7.86;67.17;100585.72;6274470;22;45285;-51
2023/01/15 09:03:14;;;;;;;;;1.00;0.00;;;;;7.88;66.91;100587.28;6275209;22;45365;-46
2023/01/15 09:05:40;;;;;;;;;0.00;0.00;;;;;7.91;66.52;100586.16;6274921;22;45248;-43
2023/01/15 09:08:06;;;;;;;;;1.00;0.00;;;;;7.94;66.16;100588.56;6274294;22;45322;-52
2023/01/15 09:10:32;;;;;;;;;2.00;0.33;;;;;7.99;66.57;100597.75;6274897;22;45321;-50
2023/01/15 09:13:00;;;;;;;;;4.33;1.00;;;;;8.02;65.62;100586.06;6275013;22;45347;-49
2023/01/15 09:15:25;;;;;;;;;0.00;0.00;;;;;8.11;65.78;100597.69;6274748;22;45119;-53
2023/01/15 09:17:51;;;;;;;;;0.00;0.00;;;;;8.20;66.03;100600.34;6275160;22;47091;-52
2023/01/15 09:20:16;;;;;;;;;0.67;0.00;;;;;8.30;65.49;100612.78;6275737;22;45340;-48
2023/01/15 09:22:42;;;;;;;;;0.00;0.00;;;;;8.37;65.22;100596.25;6275777;22;45182;-52
2023/01/15 09:25:08;;;;;;;;;0.00;0.00;;;;;8.50;64.66;100599.47;6275984;22;45167;-51
2023/01/15 09:27:33;;;;;;;;;0.33;0.00;;;;;8.62;63.53;100600.19;6275336;22;46161;-54
2023/01/15 09:29:59;;;;;;;;;4.33;1.00;;;;;9.18;64.44;100603.97;6275405;22;45353;-44
2023/01/15 09:32:24;;;;;;;;;1.67;1.67;;;;;10.81;60.70;100602.63;6276264;22;45211;-52
2023/01/15 09:34:49;;;;;;;;;0.67;0.00;;;;;12.46;56.88;100596.38;6276274;22;45335;-46
2023/01/15 09:37:15;;;;;;;;;1.00;1.00;;;;;13.78;52.77;100600.75;6275457;22;45999;-46
2023/01/15 09:39:40;;;;;;;;;0.00;0.00;;;;;14.83;49.79;100594.13;6275760;22;45343;-52
2023/01/15 09:42:27;;;;;;;;;0.00;0.00;;;;;15.83;48.34;100598.47;6276195;22;45324;-54
2023/01/15 09:45:20;;;;;;;;;6.67;3.00;;;;;16.71;46.22;100598.31;6275507;22;45335;-51
2023/01/15 09:48:04;;;;;;;;;0.00;0.00;;;;;17.31;45.25;100590.84;6275621;22;46205;-51
2023/01/15 09:50:58;;;;;;;;;0.00;0.00;;;;;17.87;43.30;100598.13;6275907;22;45163;-48
2023/01/15 09:53:31;;;;;;;;;0.33;0.33;;;;;18.75;40.35;100590.22;6276082;22;45349;-49
2023/01/15 09:56:00;;;;;;;;;0.00;0.00;;;;;19.34;40.05;100587.59;6276238;22;45289;-52
2023/01/15 09:58:39;;;;;;;;;2.75;1.00;;;;;19.85;39.37;100596.91;6275468;22;47126;-50
2023/01/15 10:01:06;;;;;;;;;1.00;0.00;;;;;20.13;40.02;100604.72;6276063;22;45340;-51
2023/01/15 10:04:03;;;;;;;;;1.00;0.00;;;;;20.34;38.35;100600.91;6275543;22;45277;-50
2023/01/15 10:06:35;;;;;;;;;0.00;0.00;;;;;19.67;37.20;100592.97;6275706;22;45199;-53
2023/01/15 10:09:10;;;;;;;;;1.00;1.00;;;;;20.47;36.81;100605.41;6275182;22;46294;-51
2023/01/15 10:14:39;;;;;;;;;0.25;0.25;;;;;21.01;35.87;100595.97;6276095;22;45309;-48
2023/01/15 10:17:25;;;;;;;;;1.50;0.50;;;;;18.41;39.99;100598.19;6248161;22;45694;-52
2023/01/15 10:19:51;;;;;;;;;2.00;0.25;;;;;17.78;39.37;100608.22;6275535;22;46801;-52
2023/01/15 10:22:39;;;;;;;;;2.75;1.00;;;;;18.40;41.99;100617.22;6275732;22;45336;-47
2023/01/15 10:25:13;;;;;;;;;0.00;0.00;;;;;19.51;39.07;100600.63;6120928;23;45304;-44
2023/01/15 10:27:45;;;;;;;;;1.00;1.00;;;;;19.06;38.19;100595.06;6120955;23;45458;-45
2023/01/15 10:30:41;;;;;;;;;0.00;0.00;;;;;19.93;36.97;100594.81;6096252;23;47241;-43
2023/01/15 10:33:39;;;;;;;;;3.00;0.00;;;;;20.48;37.17;100588.13;6117528;23;45356;-47
2023/01/15 10:36:29;;;;;;;;;0.00;0.00;;;;;21.14;36.39;100585.88;6060439;23;45412;-49
2023/01/15 10:39:22;;;;;;;;;0.00;0.00;;;;;21.77;34.98;100590.34;6062437;23;45383;-51
2023/01/15 10:42:08;;;;;;;;;2.80;0.00;;;;;21.46;35.55;100585.88;6061548;23;47141;-40
2023/01/15 10:44:41;;;;;;;;;0.20;0.20;;;;;21.24;35.07;100581.84;6062365;23;45254;-48
2023/01/15 10:47:14;;;;;;;;;0.00;0.00;;;;;21.16;35.59;100582.97;6062350;23;45379;-53
2023/01/15 10:49:41;;;;;;;;;0.00;0.00;;;;;19.68;35.89;100591.13;6062792;23;45715;-47
2023/01/15 10:52:18;;;;;;;;;1.00;0.00;;;;;18.65;38.16;100588.72;6062183;23;45397;-46
2023/01/15 10:54:50;;;;;;;;;1.00;0.40;;;;;17.87;39.24;100590.06;6061868;23;45463;-51
2023/01/15 10:57:29;;;;;;;;;0.75;0.75;;;;;17.17;41.49;100605.22;6062809;23;45367;-53
2023/01/15 10:59:59;;;;;;;;;0.25;0.25;;;;;17.22;40.38;100594.72;6062237;23;45350;-53
2023/01/15 11:02:38;;;;;;;;;1.50;1.00;;;;;18.59;40.13;100599.50;6150767;22;45498;-46
2023/01/15 11:05:04;;;;;;;;;0.75;0.25;;;;;19.15;37.20;100585.72;6210289;22;45384;-49
2023/01/15 11:07:42;;;;;;;;;0.00;0.00;;;;;18.81;38.56;100592.94;6210174;22;45314;-45
2023/01/15 11:10:13;;;;;;;;;2.00;0.00;;;;;18.67;39.97;100588.53;6210972;22;45297;-45
2023/01/15 11:21:26;;;;;;;;;0.00;0.00;;;;;18.86;37.98;100559.97;6210564;22;45378;-46
2023/01/15 11:23:54;;;;;;;;;9.25;4.75;;;;;19.61;36.51;100556.03;6209797;22;47020;-45
2023/01/15 11:26:26;;;;;;;;;0.00;0.00;;;;;20.12;36.22;100555.28;6210206;22;45574;-45
2023/01/15 11:28:54;;;;;;;;;0.00;0.00;;;;;20.28;36.50;100559.38;6210994;22;45354;-48
2023/01/15 11:31:20;;;;;;;;;0.00;0.00;;;;;19.61;35.68;100557.91;6209566;22;45457;-46
2023/01/15 11:33:59;;;;;;;;;2.00;1.00;;;;;18.83;37.22;100549.59;6210702;22;45420;-46
2023/01/15 11:36:27;;;;;;;;;2.40;0.00;;;;;18.43;37.41;100563.78;6210248;22;45341;-46
2023/01/15 11:38:53;;;;;;;;;0.50;0.25;;;;;17.46;39.45;100562.03;6209829;22;45385;-45
2023/01/15 11:52:49;;;;;;;;;31.33;24.33;;;;;16.45;40.61;100536.28;6210837;22;45386;-44
2023/01/15 11:55:19;;;;;;;;;0.00;0.00;;;;;16.05;40.94;100551.06;6210505;22;46097;-43
2023/01/15 11:57:46;;;;;;;;;2.00;0.00;;;;;16.27;40.81;100552.81;6229580;22;45337;-44
2023/01/15 12:00:20;;;;;;;;;0.00;0.00;;;;;16.48;41.56;100546.66;6240736;22;45227;-44
2023/01/15 12:02:49;;;;;;;;;1.00;0.00;;;;;16.90;40.37;100537.81;6242925;22;45328;-42
2023/01/15 12:05:24;;;;;;;;;2.00;0.00;;;;;17.45;40.29;100546.09;6243143;22;46271;-43
2023/01/15 12:07:53;;;;;;;;;3.50;1.25;;;;;17.88;39.43;100543.28;6243575;22;45230;-44
2023/01/15 12:13:23;;;;;;;;;2.50;0.00;;;;;18.08;38.32;100529.91;6243896;22;45281;-46
2023/01/15 12:15:54;;;;;;;;;2.00;1.00;;;;;18.08;38.58;100516.47;6243464;22;45986;-44
2023/01/15 12:18:52;;;;;;;;;2.25;0.00;;;;;18.42;38.11;100518.22;6243630;22;45241;-46
2023/01/15 12:21:47;;;;;;;;;2.00;0.00;;;;;18.82;36.66;100499.44;6244401;22;45374;-49
2023/01/15 12:24:33;;;;;;;;;0.50;0.00;;;;;18.72;37.08;100510.63;6244769;22;45232;-44
2023/01/15 12:27:24;;;;;;;;;1.25;1.25;;;;;19.07;36.22;100497.78;6243505;22;46073;-47
2023/01/15 12:30:28;;;;;;;;;1.00;1.00;;;;;18.84;35.63;100478.50;6243388;22;45281;-47
2023/01/15 12:33:02;;;;;;;;;1.00;0.00;;;;;18.55;35.93;100477.00;6243316;22;45174;-48
2023/01/15 12:35:30;;;;;;;;;0.00;0.00;;;;;18.22;36.83;100474.25;6243968;22;45178;-48
2023/01/15 12:38:04;;;;;;;;;0.00;0.00;;;;;18.04;36.93;100477.50;6243428;22;45995;-48